Koushinmaru No.5 — JL6695 — position and weather

sailwx.info

Track history (hours):
 
Tides and Currents Weather Stations Pressure Air Temp Water Temp Dewpoint Dewpoint Depression Visibility Wind Speed Wind Dir Waves Ship Positions

Koushinmaru No.5

Last reported at 2015-Apr-18 06:31 UTC. Time now 2015-Apr-18 19:22 UTC.
Position N 34°10' E 134°59'.

Length 75 m; draft 3.5 m.

Type: Cargo ship. MMSI: 431301703.

Date/timePositionNaut miles runAvg speedWind from/ knotsBaromVisibWave heightAir tempDewpointWater temp
2015-Apr-18 06:31N 34°10' E 134°59'1411.5
2015-Apr-18 05:17N 34°24' E 135°00'810.9
2015-Apr-18 04:33N 34°31' E 135°03'1210.5
2015-Apr-18 03:25N 34°38' E 134°51'7 0.3
2015-Apr-17 05:14N 34°38' E 134°59'5 7.6
2015-Apr-17 04:33N 34°36' E 135°05'1110.9
2015-Apr-17 03:33N 34°38' E 135°18'7 7.1
2015-Apr-17 02:33N 34°38' E 135°27'0 0.0
2015-Apr-17 00:33N 34°38' E 135°27'0 0.0
2015-Apr-16 23:33N 34°38' E 135°27'4 4.3
2015-Apr-16 22:33N 34°36' E 135°22'1 0.6
2015-Apr-16 21:33N 34°36' E 135°22'0 0.0
2015-Apr-16 20:33N 34°36' E 135°22'0 0.0
2015-Apr-16 19:33N 34°36' E 135°22'0 0.0
2015-Apr-16 18:23N 34°36' E 135°22'0 0.0
2015-Apr-16 17:33N 34°36' E 135°22'0 0.1
2015-Apr-16 16:33N 34°36' E 135°22'0 0.0
2015-Apr-16 15:33N 34°36' E 135°22'0 0.0
2015-Apr-16 14:33N 34°36' E 135°22'0 0.0
2015-Apr-16 13:31N 34°36' E 135°22'0 0.0
2015-Apr-16 12:33N 34°36' E 135°22'0 0.0
2015-Apr-16 11:33N 34°36' E 135°22'0 0.0
2015-Apr-16 10:33N 34°36' E 135°22'0 0.0
2015-Apr-16 09:33N 34°36' E 135°22'0 0.1
2015-Apr-16 08:33N 34°36' E 135°22'1010.1
2015-Apr-16 07:33N 34°29' E 135°13'1211.0
2015-Apr-16 06:30N 34°20' E 135°05'5 5.7
2015-Apr-16 05:33N 34°15' E 135°07'0 0.0
2015-Apr-16 04:33N 34°15' E 135°07'0 0.0
2015-Apr-16 03:33N 34°15' E 135°07'0 0.0
2015-Apr-16 02:33N 34°15' E 135°07'0 0.0
2015-Apr-16 01:33N 34°15' E 135°07'0 0.0
2015-Apr-16 00:33N 34°15' E 135°07'0 0.0
2015-Apr-15 23:33N 34°15' E 135°07'0 0.0
2015-Apr-15 22:33N 34°15' E 135°07'3 2.9
2015-Apr-15 21:34N 34°15' E 135°04'8 1.6
2015-Apr-15 16:32N 34°22' E 135°09'0 0.0
2015-Apr-15 15:33N 34°22' E 135°09'0 0.0
2015-Apr-15 14:30N 34°22' E 135°09'0 0.0
2015-Apr-15 13:32N 34°22' E 135°09'0 0.1
2015-Apr-15 12:33N 34°22' E 135°09'0 0.0
2015-Apr-15 11:33N 34°22' E 135°09'0 0.0
2015-Apr-15 10:33N 34°22' E 135°09'0 0.0
2015-Apr-15 09:33N 34°22' E 135°09'0 0.0
2015-Apr-15 08:33N 34°22' E 135°09'0 0.0
2015-Apr-15 07:32N 34°22' E 135°09'0 0.0
2015-Apr-15 06:32N 34°22' E 135°09'2 1.4
2015-Apr-15 05:14N 34°24' E 135°08'811.4
2015-Apr-15 04:32N 34°30' E 135°14'1111.1
2015-Apr-15 03:33N 34°38' E 135°23'4 2.8
2015-Apr-15 02:07N 34°40' E 135°27'0 0.0
2015-Apr-15 01:33N 34°40' E 135°27'0 0.0
2015-Apr-15 00:32N 34°40' E 135°27'0 0.0
2015-Apr-14 23:33N 34°40' E 135°27'2 2.0
2015-Apr-14 22:33N 34°39' E 135°25'4 3.9
2015-Apr-14 21:31N 34°36' E 135°22'0 0.0
2015-Apr-14 20:33N 34°36' E 135°22'0 0.0
2015-Apr-14 19:33N 34°36' E 135°22'0 0.0
2015-Apr-14 18:33N 34°36' E 135°22'0 0.1
2015-Apr-14 17:33N 34°36' E 135°22'0 0.0
2015-Apr-14 16:33N 34°36' E 135°22'0 0.0
2015-Apr-14 15:33N 34°36' E 135°22'0 0.0
2015-Apr-14 14:33N 34°36' E 135°22'0 0.0
2015-Apr-14 13:33N 34°36' E 135°22'0 0.0
2015-Apr-14 12:33N 34°36' E 135°22'0 0.1
2015-Apr-14 11:33N 34°36' E 135°22'0 0.1
2015-Apr-14 10:33N 34°36' E 135°22'0 0.0
2015-Apr-14 09:31N 34°36' E 135°22'2 2.2
2015-Apr-14 08:33N 34°33' E 135°22'3 0.4
2015-Apr-14 01:14N 34°31' E 135°24'0 0.0
2015-Apr-14 00:17N 34°31' E 135°24'0 0.0
2015-Apr-13 23:33N 34°31' E 135°24'3 3.1
2015-Apr-13 22:33N 34°33' E 135°21'0 0.0
2015-Apr-13 21:33N 34°33' E 135°21'0 0.1
2015-Apr-13 20:33N 34°33' E 135°21'0 0.1
2015-Apr-13 19:30N 34°33' E 135°21'0 0.0
2015-Apr-13 18:33N 34°33' E 135°21'0 0.0
2015-Apr-13 17:33N 34°33' E 135°21'1 1.4
2015-Apr-13 16:33N 34°33' E 135°19'1010.0
2015-Apr-13 15:33N 34°34' E 135°07'1010.2
2015-Apr-13 14:32N 34°35' E 134°54'  
Track history (hours):
 
Tides and Currents Weather Stations Pressure Air Temp Water Temp Dewpoint Dewpoint Depression Visibility Wind Speed Wind Dir Waves Ship Positions

Koushinmaru No.5

Last reported at 2015-Apr-18 06:31 UTC. Time now 2015-Apr-18 19:22 UTC.
Position N 34°10' E 134°59'.

Length 75 m; draft 3.5 m.

Type: Cargo ship. MMSI: 431301703.

Date/timePositionNaut miles runAvg speedWind from/ knotsBaromVisibWave heightAir tempDewpointWater temp
2015-Apr-18 06:31N 34°10' E 134°59'1411.5
2015-Apr-18 05:17N 34°24' E 135°00'810.9
2015-Apr-18 04:33N 34°31' E 135°03'1210.5
2015-Apr-18 03:25N 34°38' E 134°51'7 0.3
2015-Apr-17 05:14N 34°38' E 134°59'5 7.6
2015-Apr-17 04:33N 34°36' E 135°05'1110.9
2015-Apr-17 03:33N 34°38' E 135°18'7 7.1
2015-Apr-17 02:33N 34°38' E 135°27'0 0.0
2015-Apr-17 00:33N 34°38' E 135°27'0 0.0
2015-Apr-16 23:33N 34°38' E 135°27'4 4.3
2015-Apr-16 22:33N 34°36' E 135°22'1 0.6
2015-Apr-16 21:33N 34°36' E 135°22'0 0.0
2015-Apr-16 20:33N 34°36' E 135°22'0 0.0
2015-Apr-16 19:33N 34°36' E 135°22'0 0.0
2015-Apr-16 18:23N 34°36' E 135°22'0 0.0
2015-Apr-16 17:33N 34°36' E 135°22'0 0.1
2015-Apr-16 16:33N 34°36' E 135°22'0 0.0
2015-Apr-16 15:33N 34°36' E 135°22'0 0.0
2015-Apr-16 14:33N 34°36' E 135°22'0 0.0
2015-Apr-16 13:31N 34°36' E 135°22'0 0.0
2015-Apr-16 12:33N 34°36' E 135°22'0 0.0
2015-Apr-16 11:33N 34°36' E 135°22'0 0.0
2015-Apr-16 10:33N 34°36' E 135°22'0 0.0
2015-Apr-16 09:33N 34°36' E 135°22'0 0.1
2015-Apr-16 08:33N 34°36' E 135°22'1010.1
2015-Apr-16 07:33N 34°29' E 135°13'1211.0
2015-Apr-16 06:30N 34°20' E 135°05'5 5.7
2015-Apr-16 05:33N 34°15' E 135°07'0 0.0
2015-Apr-16 04:33N 34°15' E 135°07'0 0.0
2015-Apr-16 03:33N 34°15' E 135°07'0 0.0
2015-Apr-16 02:33N 34°15' E 135°07'0 0.0
2015-Apr-16 01:33N 34°15' E 135°07'0 0.0
2015-Apr-16 00:33N 34°15' E 135°07'0 0.0
2015-Apr-15 23:33N 34°15' E 135°07'0 0.0
2015-Apr-15 22:33N 34°15' E 135°07'3 2.9
2015-Apr-15 21:34N 34°15' E 135°04'8 1.6
2015-Apr-15 16:32N 34°22' E 135°09'0 0.0
2015-Apr-15 15:33N 34°22' E 135°09'0 0.0
2015-Apr-15 14:30N 34°22' E 135°09'0 0.0
2015-Apr-15 13:32N 34°22' E 135°09'0 0.1
2015-Apr-15 12:33N 34°22' E 135°09'0 0.0
2015-Apr-15 11:33N 34°22' E 135°09'0 0.0
2015-Apr-15 10:33N 34°22' E 135°09'0 0.0
2015-Apr-15 09:33N 34°22' E 135°09'0 0.0
2015-Apr-15 08:33N 34°22' E 135°09'0 0.0
2015-Apr-15 07:32N 34°22' E 135°09'0 0.0
2015-Apr-15 06:32N 34°22' E 135°09'2 1.4
2015-Apr-15 05:14N 34°24' E 135°08'811.4
2015-Apr-15 04:32N 34°30' E 135°14'1111.1
2015-Apr-15 03:33N 34°38' E 135°23'4 2.8
2015-Apr-15 02:07N 34°40' E 135°27'0 0.0
2015-Apr-15 01:33N 34°40' E 135°27'0 0.0
2015-Apr-15 00:32N 34°40' E 135°27'0 0.0
2015-Apr-14 23:33N 34°40' E 135°27'2 2.0
2015-Apr-14 22:33N 34°39' E 135°25'4 3.9
2015-Apr-14 21:31N 34°36' E 135°22'0 0.0
2015-Apr-14 20:33N 34°36' E 135°22'0 0.0
2015-Apr-14 19:33N 34°36' E 135°22'0 0.0
2015-Apr-14 18:33N 34°36' E 135°22'0 0.1
2015-Apr-14 17:33N 34°36' E 135°22'0 0.0
2015-Apr-14 16:33N 34°36' E 135°22'0 0.0
2015-Apr-14 15:33N 34°36' E 135°22'0 0.0
2015-Apr-14 14:33N 34°36' E 135°22'0 0.0
2015-Apr-14 13:33N 34°36' E 135°22'0 0.0
2015-Apr-14 12:33N 34°36' E 135°22'0 0.1
2015-Apr-14 11:33N 34°36' E 135°22'0 0.1
2015-Apr-14 10:33N 34°36' E 135°22'0 0.0
2015-Apr-14 09:31N 34°36' E 135°22'2 2.2
2015-Apr-14 08:33N 34°33' E 135°22'3 0.4
2015-Apr-14 01:14N 34°31' E 135°24'0 0.0
2015-Apr-14 00:17N 34°31' E 135°24'0 0.0
2015-Apr-13 23:33N 34°31' E 135°24'3 3.1
2015-Apr-13 22:33N 34°33' E 135°21'0 0.0
2015-Apr-13 21:33N 34°33' E 135°21'0 0.1
2015-Apr-13 20:33N 34°33' E 135°21'0 0.1
2015-Apr-13 19:30N 34°33' E 135°21'0 0.0
2015-Apr-13 18:33N 34°33' E 135°21'0 0.0
2015-Apr-13 17:33N 34°33' E 135°21'1 1.4
2015-Apr-13 16:33N 34°33' E 135°19'1010.0
2015-Apr-13 15:33N 34°34' E 135°07'1010.2
2015-Apr-13 14:32N 34°35' E 134°54'  

Dump ship's entire track history